Time;durP1;ratioP1;P1;durP2;ratioP2;P2;SDS_P1;SDS_P2;PMS_P1;PMS_P2;Temp;Humidity;BMP_temperature;BMP_pressure;BME280_temperature;BME280_humidity;BME280_pressure;Samples;Min_cycle;Max_cycle;Signal;HPM_P1;HPM_P2
2022/03/24 00:01:20;;;;;;;29.30;18.17;;;7.10;1.00;;;;;;7362977;19;20470;-62
2022/03/24 00:03:52;;;;;;;32.10;18.38;;;7.10;1.00;;;;;;7361215;19;20027;-62
2022/03/24 00:06:22;;;;;;;33.40;17.80;;;7.10;1.00;;;;;;7355909;19;20018;-63
2022/03/24 00:08:52;;;;;;;30.73;18.17;;;6.90;1.00;;;;;;7359690;19;20022;-62
2022/03/24 00:11:22;;;;;;;33.15;18.08;;;6.80;1.00;;;;;;7363761;19;20018;-63
2022/03/24 00:13:52;;;;;;;28.13;17.48;;;6.70;1.00;;;;;;7381848;19;20352;-62
2022/03/24 00:16:23;;;;;;;31.30;17.50;;;6.70;1.00;;;;;;7355423;19;20018;-62
2022/03/24 00:18:56;;;;;;;25.60;17.05;;;6.80;1.00;;;;;;7360327;19;20011;-62
2022/03/24 00:21:26;;;;;;;29.30;17.63;;;6.80;1.00;;;;;;7362492;19;20018;-62
2022/03/24 00:23:57;;;;;;;31.92;17.23;;;6.80;1.00;;;;;;7361858;19;20036;-62
2022/03/24 00:26:27;;;;;;;37.77;17.10;;;6.80;1.00;;;;;;7355569;19;20551;-62
2022/03/24 00:28:57;;;;;;;26.60;16.40;;;6.80;1.00;;;;;;7381034;19;20021;-62
2022/03/24 00:31:27;;;;;;;29.40;15.63;;;6.80;1.00;;;;;;7362084;19;20038;-62
2022/03/24 00:34:00;;;;;;;29.63;17.73;;;6.80;1.00;;;;;;7359991;19;20025;-62
2022/03/24 00:36:30;;;;;;;26.02;16.35;;;6.40;1.00;;;;;;7355747;19;20443;-62
2022/03/24 00:39:00;;;;;;;28.52;17.35;;;6.20;1.00;;;;;;7358868;19;20755;-62
2022/03/24 00:41:31;;;;;;;30.52;18.20;;;6.30;1.00;;;;;;7360302;19;20112;-61
2022/03/24 00:44:02;;;;;;;27.45;17.15;;;6.40;1.00;;;;;;7382474;19;20101;-61
2022/03/24 00:46:33;;;;;;;33.47;18.80;;;6.20;1.00;;;;;;7353518;19;20029;-63
2022/03/24 00:49:06;;;;;;;35.10;19.60;;;6.10;1.00;;;;;;7359327;19;20018;-62
2022/03/24 00:51:36;;;;;;;33.65;18.00;;;6.00;1.00;;;;;;7363006;19;20010;-62
2022/03/24 00:54:09;;;;;;;26.63;17.67;;;5.90;1.00;;;;;;7360438;19;20028;-62
2022/03/24 00:56:39;;;;;;;31.80;17.92;;;5.80;1.00;;;;;;7355845;19;20019;-62
2022/03/24 00:59:09;;;;;;;31.55;17.85;;;5.70;1.00;;;;;;7388672;19;20471;-61
2022/03/24 01:01:39;;;;;;;30.38;18.88;;;5.60;1.00;;;;;;7370066;19;20014;-62
2022/03/24 01:04:12;;;;;;;33.88;18.67;;;5.60;1.00;;;;;;7367312;19;20015;-62
2022/03/24 01:06:43;;;;;;;30.77;18.90;;;5.60;1.00;;;;;;7361453;19;20017;-61
2022/03/24 01:09:12;;;;;;;29.90;18.10;;;5.60;1.00;;;;;;7366691;19;20031;-62
2022/03/24 01:11:43;;;;;;;34.92;18.95;;;5.40;1.00;;;;;;7370337;19;20024;-62
2022/03/24 01:14:16;;;;;;;28.95;17.48;;;5.30;1.00;;;;;;7389350;19;20011;-62
2022/03/24 01:16:50;;;;;;;32.53;19.38;;;5.20;1.00;;;;;;7361947;19;20006;-62
2022/03/24 01:19:22;;;;;;;30.75;18.67;;;5.30;1.00;;;;;;7366764;19;20108;-62
2022/03/24 01:21:52;;;;;;;33.58;18.85;;;5.20;1.00;;;;;;7368354;19;20011;-62
2022/03/24 01:24:22;;;;;;;30.10;18.08;;;5.20;1.00;;;;;;7367079;19;20014;-62
2022/03/24 01:26:52;;;;;;;33.45;19.60;;;5.30;1.00;;;;;;7361886;19;20074;-61
2022/03/24 01:29:22;;;;;;;32.08;18.42;;;5.20;1.00;;;;;;7366146;19;20017;-62
2022/03/24 01:31:52;;;;;;;31.00;19.40;;;5.10;1.00;;;;;;7391066;19;20025;-61
2022/03/24 01:34:25;;;;;;;33.10;19.48;;;5.10;1.00;;;;;;7366815;19;20010;-62
2022/03/24 01:36:55;;;;;;;33.25;19.90;;;5.10;1.00;;;;;;7360058;19;20087;-62
2022/03/24 01:39:25;;;;;;;31.00;18.45;;;5.00;1.00;;;;;;7366281;19;20529;-62
2022/03/24 01:41:55;;;;;;;29.88;17.60;;;5.00;1.00;;;;;;7366891;19;20014;-62
2022/03/24 01:44:26;;;;;;;30.00;16.83;;;5.00;1.00;;;;;;7367192;19;20014;-62
2022/03/24 01:46:58;;;;;;;28.23;18.58;;;5.10;1.00;;;;;;7382890;19;20014;-62
2022/03/24 01:49:32;;;;;;;32.45;18.20;;;5.10;1.00;;;;;;7366886;19;20070;-62
2022/03/24 01:52:03;;;;;;;35.97;19.23;;;5.30;1.00;;;;;;7367050;19;20021;-61
2022/03/24 01:54:34;;;;;;;35.40;19.10;;;5.20;1.00;;;;;;7365345;19;20025;-62
2022/03/24 01:57:05;;;;;;;32.25;16.95;;;5.20;1.00;;;;;;7358727;19;20014;-62
2022/03/24 01:59:37;;;;;;;35.00;18.23;;;5.30;1.00;;;;;;7367044;19;20075;-62
2022/03/24 02:02:07;;;;;;;32.13;18.85;;;5.30;1.00;;;;;;7390019;19;20386;-62
2022/03/24 02:04:42;;;;;;;35.08;19.40;;;5.40;1.00;;;;;;7365689;19;20467;-62
2022/03/24 02:07:13;;;;;;;51.78;27.00;;;5.40;1.00;;;;;;7357074;19;21254;-61
2022/03/24 02:09:43;;;;;;;59.92;27.75;;;5.50;1.00;;;;;;7364441;19;20020;-62
2022/03/24 02:12:15;;;;;;;36.58;21.15;;;5.50;1.00;;;;;;7366843;19;20349;-62
2022/03/24 02:14:45;;;;;;;32.67;18.98;;;5.50;1.00;;;;;;7366797;19;20021;-62
2022/03/24 02:17:20;;;;;;;30.95;18.10;;;5.40;1.00;;;;;;7363906;19;20017;-62
2022/03/24 02:19:52;;;;;;;33.67;18.50;;;5.40;1.00;;;;;;7387911;19;20082;-62
2022/03/24 02:22:25;;;;;;;31.80;18.88;;;5.40;1.00;;;;;;7366371;19;20002;-62
2022/03/24 02:24:55;;;;;;;33.40;17.55;;;5.40;1.00;;;;;;7364231;19;20098;-62
2022/03/24 02:27:25;;;;;;;26.35;17.35;;;5.60;1.00;;;;;;7356680;19;20061;-61
2022/03/24 02:29:55;;;;;;;27.60;17.15;;;5.60;1.00;;;;;;7364331;19;20016;-62
2022/03/24 02:32:25;;;;;;;27.42;17.30;;;5.60;1.00;;;;;;7366983;19;20028;-62
2022/03/24 02:34:55;;;;;;;28.38;17.45;;;5.60;1.00;;;;;;7384913;19;20367;-62
2022/03/24 02:37:30;;;;;;;30.13;16.48;;;5.50;1.00;;;;;;7356632;19;20014;-62
2022/03/24 02:40:01;;;;;;;28.50;16.80;;;5.50;1.00;;;;;;7364931;19;20393;-62
2022/03/24 02:42:33;;;;;;;30.00;16.40;;;5.60;1.00;;;;;;7365697;19;20010;-62
2022/03/24 02:45:06;;;;;;;26.45;16.88;;;5.60;1.00;;;;;;7366079;19;20018;-62
2022/03/24 02:47:36;;;;;;;30.40;16.45;;;5.60;1.00;;;;;;7357321;19;20106;-62
2022/03/24 02:50:09;;;;;;;27.35;15.65;;;5.50;1.00;;;;;;7384908;19;20007;-62
2022/03/24 02:52:41;;;;;;;24.40;15.57;;;5.50;1.00;;;;;;7365619;19;20017;-62
2022/03/24 02:55:12;;;;;;;29.38;16.48;;;5.40;1.00;;;;;;7363636;19;20472;-62
2022/03/24 02:57:42;;;;;;;24.40;16.08;;;5.40;1.00;;;;;;7357330;19;20044;-62
2022/03/24 03:00:13;;;;;;;22.88;16.00;;;5.30;1.00;;;;;;7365520;19;20330;-62
2022/03/24 03:02:43;;;;;;;28.08;15.40;;;5.30;1.00;;;;;;7365948;19;20106;-62
2022/03/24 03:05:13;;;;;;;27.05;16.15;;;5.20;1.00;;;;;;7385109;19;20016;-61
2022/03/24 03:07:45;;;;;;;28.08;16.77;;;5.10;1.00;;;;;;7357042;19;20089;-62
2022/03/24 03:10:15;;;;;;;30.25;17.63;;;5.10;1.00;;;;;;7363735;19;20007;-62
2022/03/24 03:12:46;;;;;;;28.63;18.02;;;5.20;1.00;;;;;;7364445;19;20339;-61
2022/03/24 03:15:16;;;;;;;30.58;17.92;;;5.20;1.00;;;;;;7364865;19;20027;-62
2022/03/24 03:17:46;;;;;;;27.58;17.13;;;5.20;1.00;;;;;;7355733;19;20018;-62
2022/03/24 03:20:16;;;;;;;27.35;16.75;;;5.20;1.00;;;;;;7361914;19;20086;-63
2022/03/24 03:22:50;;;;;;;28.38;17.73;;;5.20;1.00;;;;;;7386308;19;20007;-61
2022/03/24 03:25:20;;;;;;;25.98;16.67;;;5.30;1.00;;;;;;7362767;19;20082;-61
2022/03/24 03:27:50;;;;;;;28.77;17.20;;;5.20;1.00;;;;;;7356870;19;20261;-61
2022/03/24 03:30:20;;;;;;;33.15;17.15;;;5.20;1.00;;;;;;7362324;19;20010;-61
2022/03/24 03:32:50;;;;;;;29.55;17.60;;;5.10;1.00;;;;;;7363807;19;20458;-62
2022/03/24 03:35:20;;;;;;;30.23;17.02;;;5.10;1.00;;;;;;7362451;19;20651;-62
2022/03/24 03:37:54;;;;;;;28.13;16.27;;;5.00;1.00;;;;;;7377888;19;20017;-61
2022/03/24 03:40:24;;;;;;;26.67;16.70;;;5.00;1.00;;;;;;7363088;19;20097;-62
2022/03/24 03:42:53;;;;;;;29.08;16.42;;;5.00;1.00;;;;;;7363797;19;20526;-62
2022/03/24 03:45:23;;;;;;;26.70;16.27;;;5.00;1.00;;;;;;7362421;19;20078;-62
2022/03/24 03:47:53;;;;;;;30.67;17.10;;;5.00;1.00;;;;;;7355424;19;20810;-62
2022/03/24 03:50:25;;;;;;;26.27;16.42;;;4.90;1.00;;;;;;7361602;19;20470;-62
2022/03/24 03:52:57;;;;;;;30.35;16.00;;;4.90;1.00;;;;;;7385698;19;20010;-62
2022/03/24 03:55:27;;;;;;;28.92;16.75;;;4.90;1.00;;;;;;7361004;19;20086;-62
2022/03/24 03:57:58;;;;;;;28.40;17.60;;;4.90;1.00;;;;;;7356199;19;20012;-62
2022/03/24 04:03:10;;;;;;;26.13;16.10;;;4.80;1.00;;;;;;7363758;19;20010;-62
2022/03/24 04:05:40;;;;;;;27.00;16.88;;;4.70;1.00;;;;;;7360579;19;20017;-63
2022/03/24 04:08:13;;;;;;;25.42;15.93;;;4.70;1.00;;;;;;7378724;19;20010;-61
2022/03/24 04:10:43;;;;;;;27.10;17.48;;;4.50;1.00;;;;;;7360684;19;20017;-62
2022/03/24 04:13:13;;;;;;;28.15;16.92;;;4.50;1.00;;;;;;7363789;19;20014;-62
2022/03/24 04:15:43;;;;;;;29.33;16.45;;;4.50;1.00;;;;;;7360113;19;20014;-62
2022/03/24 04:18:13;;;;;;;27.92;16.77;;;4.50;1.00;;;;;;7356977;19;20556;-62
2022/03/24 04:20:43;;;;;;;28.60;17.50;;;4.50;1.00;;;;;;7362047;19;20025;-62
2022/03/24 04:23:15;;;;;;;30.13;17.27;;;4.50;1.00;;;;;;7385411;19;20021;-62
2022/03/24 04:25:45;;;;;;;28.58;17.60;;;4.50;1.00;;;;;;7358667;19;20021;-62
2022/03/24 04:28:16;;;;;;;29.05;17.88;;;4.40;1.00;;;;;;7357165;19;20013;-62
2022/03/24 04:30:46;;;;;;;31.13;18.08;;;4.50;1.00;;;;;;7361016;19;20085;-62
2022/03/24 04:33:16;;;;;;;29.75;18.58;;;4.50;1.00;;;;;;7366412;19;20839;-61
2022/03/24 04:35:46;;;;;;;30.35;18.55;;;4.50;1.00;;;;;;7365429;19;20026;-61
2022/03/24 04:38:18;;;;;;;29.88;18.08;;;4.40;1.00;;;;;;7366663;19;20777;-61
2022/03/24 04:40:48;;;;;;;28.10;17.85;;;4.50;1.00;;;;;;7390935;19;20011;-62
2022/03/24 04:43:18;;;;;;;33.10;17.67;;;4.50;1.00;;;;;;7368977;19;20010;-61
2022/03/24 04:45:49;;;;;;;31.95;17.58;;;4.50;1.00;;;;;;7366044;19;20006;-61
2022/03/24 04:48:20;;;;;;;32.13;19.70;;;4.50;1.00;;;;;;7364602;19;20094;-61
2022/03/24 04:50:50;;;;;;;35.20;19.75;;;4.50;1.00;;;;;;7367312;19;20081;-61
2022/03/24 04:53:22;;;;;;;27.02;17.90;;;4.40;1.00;;;;;;7369751;19;20035;-63
2022/03/24 04:55:52;;;;;;;30.15;19.55;;;4.40;1.00;;;;;;7387203;19;20466;-61
2022/03/24 04:58:22;;;;;;;30.42;17.48;;;4.30;1.00;;;;;;7365700;19;20014;-62
2022/03/24 05:00:52;;;;;;;26.90;18.35;;;4.30;1.00;;;;;;7368369;19;20070;-61
2022/03/24 05:03:23;;;;;;;29.98;17.15;;;4.20;1.00;;;;;;7369087;19;20094;-62
2022/03/24 05:05:54;;;;;;;28.45;17.90;;;4.20;1.00;;;;;;7365212;19;20010;-62
2022/03/24 05:08:26;;;;;;;28.38;18.40;;;4.20;1.00;;;;;;7365030;19;20384;-61
2022/03/24 05:10:57;;;;;;;31.67;19.23;;;4.30;1.00;;;;;;7387088;19;20367;-61
2022/03/24 05:13:27;;;;;;;31.88;19.38;;;4.30;1.00;;;;;;7368005;19;20010;-62
2022/03/24 05:15:57;;;;;;;31.85;17.92;;;4.30;1.00;;;;;;7364357;19;20015;-62
2022/03/24 05:18:27;;;;;;;30.73;19.50;;;4.30;1.00;;;;;;7365793;19;21317;-62
2022/03/24 05:20:57;;;;;;;32.80;18.60;;;4.30;1.00;;;;;;7367516;19;20007;-61
2022/03/24 05:23:30;;;;;;;31.58;18.70;;;4.30;1.00;;;;;;7366129;19;20467;-62
2022/03/24 05:26:01;;;;;;;26.40;17.30;;;4.30;1.00;;;;;;7384835;19;20018;-62
2022/03/24 05:28:31;;;;;;;30.77;18.27;;;4.30;1.00;;;;;;7365743;19;20782;-61
2022/03/24 05:31:00;;;;;;;29.88;17.73;;;4.30;1.00;;;;;;7366841;19;20015;-61
2022/03/24 05:33:30;;;;;;;27.60;18.02;;;4.30;1.00;;;;;;7366912;19;20018;-62
2022/03/24 05:36:00;;;;;;;31.35;19.33;;;4.30;1.00;;;;;;7363033;19;20322;-62
2022/03/24 05:38:33;;;;;;;27.55;17.58;;;4.40;1.00;;;;;;7366360;19;20021;-62
2022/03/24 05:41:03;;;;;;;28.08;17.73;;;4.40;1.00;;;;;;7389381;19;20021;-62
2022/03/24 05:43:34;;;;;;;32.28;18.08;;;4.40;1.00;;;;;;7364410;19;20017;-61
2022/03/24 05:46:04;;;;;;;32.78;17.20;;;4.40;1.00;;;;;;7360744;19;20466;-63
2022/03/24 05:48:34;;;;;;;26.90;17.58;;;4.50;1.00;;;;;;7365611;19;20015;-61
2022/03/24 05:51:04;;;;;;;39.10;18.35;;;4.50;1.00;;;;;;7366008;19;20007;-62
2022/03/24 05:53:36;;;;;;;32.65;18.98;;;4.50;1.00;;;;;;7367092;19;20018;-62
2022/03/24 05:56:08;;;;;;;30.58;18.00;;;4.50;1.00;;;;;;7382502;19;20020;-62
2022/03/24 05:58:38;;;;;;;30.63;18.40;;;4.50;1.00;;;;;;7364971;19;20017;-61
2022/03/24 06:01:09;;;;;;;29.10;18.92;;;4.60;1.00;;;;;;7365485;19;20007;-62
2022/03/24 06:03:41;;;;;;;27.40;16.70;;;4.70;1.00;;;;;;7366065;19;20016;-61
2022/03/24 06:06:12;;;;;;;29.67;17.80;;;4.60;1.00;;;;;;7360147;19;20016;-61
2022/03/24 06:08:45;;;;;;;29.00;18.15;;;4.50;1.00;;;;;;7365462;19;20359;-61
2022/03/24 06:11:16;;;;;;;31.30;18.65;;;4.40;1.00;;;;;;7372303;19;20043;-62
2022/03/24 06:13:46;;;;;;;31.02;17.98;;;4.40;1.00;;;;;;7387799;19;20031;-61
2022/03/24 06:16:16;;;;;;;29.85;17.00;;;4.50;1.00;;;;;;7358286;19;20382;-62
2022/03/24 06:18:53;;;;;;;29.85;18.33;;;4.60;1.00;;;;;;7362529;19;20014;-61
2022/03/24 06:21:23;;;;;;;30.95;16.98;;;4.70;1.00;;;;;;7364259;19;20007;-61
2022/03/24 06:23:56;;;;;;;30.48;17.65;;;4.90;1.00;;;;;;7364485;19;20021;-62
2022/03/24 06:26:26;;;;;;;31.08;18.23;;;5.10;1.00;;;;;;7357993;19;20024;-63
2022/03/24 06:28:56;;;;;;;29.05;16.85;;;5.30;1.00;;;;;;7385922;19;20022;-61
2022/03/24 06:31:26;;;;;;;26.33;16.90;;;5.30;1.00;;;;;;7362904;19;20017;-61
2022/03/24 06:33:56;;;;;;;32.10;17.50;;;5.40;1.00;;;;;;7363570;19;20023;-63
2022/03/24 06:36:26;;;;;;;34.10;19.50;;;5.50;1.00;;;;;;7358834;19;20003;-61
2022/03/24 06:38:59;;;;;;;31.00;17.05;;;5.70;1.00;;;;;;7362805;19;20014;-62
2022/03/24 06:41:29;;;;;;;32.35;17.35;;;5.70;1.00;;;;;;7363904;19;20011;-62
2022/03/24 06:43:59;;;;;;;33.10;17.80;;;5.90;1.00;;;;;;7385063;19;20035;-61
2022/03/24 06:46:30;;;;;;;29.65;17.15;;;6.00;1.00;;;;;;7357425;19;20476;-62
2022/03/24 06:49:00;;;;;;;30.45;17.98;;;6.10;1.00;;;;;;7362742;19;20013;-61
2022/03/24 06:51:30;;;;;;;27.25;17.88;;;6.30;1.00;;;;;;7363841;19;20493;-62
2022/03/24 06:54:04;;;;;;;25.95;16.98;;;6.20;1.00;;;;;;7362735;19;20042;-62
2022/03/24 06:56:34;;;;;;;30.25;16.27;;;6.20;1.00;;;;;;7357737;19;20016;-62
2022/03/24 06:59:04;;;;;;;28.60;16.50;;;6.30;1.00;;;;;;7384935;19;20033;-62
2022/03/24 07:01:34;;;;;;;28.02;16.13;;;6.40;1.00;;;;;;7363397;19;20102;-62
2022/03/24 07:04:04;;;;;;;29.40;16.85;;;6.50;1.00;;;;;;7362635;19;20011;-61
2022/03/24 07:06:34;;;;;;;28.30;16.50;;;6.60;1.00;;;;;;7358650;19;20007;-62
2022/03/24 07:09:06;;;;;;;33.53;17.45;;;6.50;1.00;;;;;;7360303;19;20014;-62
2022/03/24 07:11:36;;;;;;;30.83;17.33;;;6.70;1.00;;;;;;7363048;19;20061;-63
2022/03/24 07:14:10;;;;;;;33.00;17.98;;;6.80;1.00;;;;;;7384866;19;20107;-63
2022/03/24 07:16:46;;;;;;;29.85;17.55;;;7.00;1.00;;;;;;7356882;19;20367;-62
2022/03/24 07:19:16;;;;;;;32.92;17.90;;;7.20;1.00;;;;;;7362594;19;20014;-62
2022/03/24 07:21:46;;;;;;;33.22;17.90;;;7.20;1.00;;;;;;7363527;19;20018;-63
2022/03/24 07:24:19;;;;;;;37.90;18.05;;;7.20;1.00;;;;;;7361284;19;20455;-62
2022/03/24 07:26:49;;;;;;;30.10;17.50;;;7.20;1.00;;;;;;7355741;19;20014;-62
2022/03/24 07:29:18;;;;;;;32.45;18.70;;;7.40;1.00;;;;;;7362336;19;20534;-62
2022/03/24 07:31:48;;;;;;;35.75;18.38;;;7.40;1.00;;;;;;7382698;19;20017;-63
2022/03/24 07:34:18;;;;;;;31.40;18.10;;;7.60;1.00;;;;;;7362040;19;20531;-62
2022/03/24 07:36:48;;;;;;;29.83;18.02;;;7.80;1.00;;;;;;7356706;19;20109;-62
2022/03/24 07:39:23;;;;;;;33.35;18.45;;;8.00;1.00;;;;;;7360568;19;20018;-62
2022/03/24 07:41:53;;;;;;;30.73;18.52;;;8.10;1.00;;;;;;7361924;19;20038;-62
2022/03/24 07:44:23;;;;;;;34.35;18.98;;;8.20;1.00;;;;;;7361185;19;20078;-61
2022/03/24 07:46:56;;;;;;;35.92;17.75;;;8.30;1.00;;;;;;7376265;19;20017;-62
2022/03/24 07:49:26;;;;;;;44.58;19.88;;;8.30;1.00;;;;;;7363437;19;20030;-62
2022/03/24 07:51:56;;;;;;;33.13;19.15;;;8.50;1.00;;;;;;7360593;19;20010;-62
2022/03/24 07:54:50;;;;;;;29.13;17.88;;;8.60;1.00;;;;;;7360213;19;20021;-63
2022/03/24 07:57:20;;;;;;;27.77;18.00;;;8.60;1.00;;;;;;7352935;19;20034;-62
2022/03/24 07:59:50;;;;;;;34.72;19.75;;;8.70;1.00;;;;;;7363093;19;20016;-62
2022/03/24 08:02:20;;;;;;;36.28;19.13;;;8.60;1.00;;;;;;7362036;19;20014;-62
2022/03/24 08:04:52;;;;;;;31.45;20.17;;;8.70;1.00;;;;;;7381694;19;20019;-61
2022/03/24 08:07:22;;;;;;;32.17;19.02;;;9.00;1.00;;;;;;7355308;19;20041;-62
2022/03/24 08:09:55;;;;;;;31.63;20.02;;;9.10;1.00;;;;;;7369242;19;20018;-63
2022/03/24 08:12:25;;;;;;;37.17;19.08;;;9.20;1.00;;;;;;7365965;19;20471;-62
2022/03/24 08:14:56;;;;;;;31.60;18.95;;;9.40;1.00;;;;;;7368961;19;20403;-63
2022/03/24 08:17:29;;;;;;;30.42;18.63;;;9.50;1.00;;;;;;7361798;19;20358;-63
2022/03/24 08:19:59;;;;;;;32.42;19.95;;;9.70;1.00;;;;;;7392986;19;20010;-62
2022/03/24 08:22:29;;;;;;;33.50;19.67;;;9.80;1.00;;;;;;7368156;19;20090;-62
2022/03/24 08:25:02;;;;;;;37.75;18.85;;;10.00;1.00;;;;;;7367255;19;20688;-63
2022/03/24 08:27:32;;;;;;;38.58;20.05;;;9.90;1.00;;;;;;7361765;19;20121;-62
2022/03/24 08:30:02;;;;;;;38.13;20.95;;;10.10;1.00;;;;;;7370382;19;20839;-61
2022/03/24 08:32:32;;;;;;;36.53;20.50;;;10.20;1.00;;;;;;7367257;19;20031;-62
2022/03/24 08:35:02;;;;;;;30.23;20.40;;;10.10;1.00;;;;;;7388647;19;20493;-61
2022/03/24 08:37:32;;;;;;;34.72;21.08;;;10.10;1.00;;;;;;7359206;19;20106;-63
2022/03/24 08:40:09;;;;;;;35.08;19.70;;;10.30;1.00;;;;;;7368841;19;20021;-63
2022/03/24 08:42:40;;;;;;;37.65;20.67;;;10.60;1.00;;;;;;7367710;19;20492;-62
2022/03/24 08:45:13;;;;;;;32.75;19.92;;;10.80;1.00;;;;;;7367883;19;20154;-63
2022/03/24 08:47:43;;;;;;;31.45;19.75;;;10.80;1.00;;;;;;7360793;19;20025;-62
2022/03/24 08:50:15;;;;;;;42.95;21.15;;;10.90;1.00;;;;;;7391503;19;20342;-63
2022/03/24 08:52:45;;;;;;;32.08;19.95;;;10.90;1.00;;;;;;7365494;19;20014;-61
2022/03/24 08:55:20;;;;;;;34.75;21.00;;;11.20;1.00;;;;;;7366181;19;20090;-65
2022/03/24 08:57:53;;;;;;;35.37;20.97;;;11.30;1.00;;;;;;7360420;19;20017;-62
2022/03/24 09:00:23;;;;;;;36.42;20.45;;;11.60;1.00;;;;;;7368943;19;20029;-61
2022/03/24 09:02:55;;;;;;;35.97;20.42;;;11.70;1.00;;;;;;7366742;19;20018;-63
2022/03/24 09:05:26;;;;;;;36.83;20.88;;;11.80;1.00;;;;;;7366271;19;20014;-62
2022/03/24 09:07:57;;;;;;;34.97;21.42;;;11.90;1.00;;;;;;7378802;19;20027;-63
2022/03/24 09:10:30;;;;;;;32.35;19.95;;;12.00;1.00;;;;;;7365916;19;20097;-63
2022/03/24 09:13:00;;;;;;;36.67;20.13;;;12.10;1.00;;;;;;7363198;19;20096;-63
2022/03/24 09:15:33;;;;;;;34.95;21.70;;;12.00;1.00;;;;;;7366259;19;20608;-64
2022/03/24 09:18:05;;;;;;;40.20;21.63;;;12.10;1.00;;;;;;7359185;19;20030;-63
2022/03/24 09:20:35;;;;;;;35.38;20.15;;;12.30;1.00;;;;;;7368348;19;20030;-62
2022/03/24 09:23:05;;;;;;;38.35;20.48;;;12.40;1.00;;;;;;7388247;19;20025;-63
2022/03/24 09:25:38;;;;;;;37.55;21.58;;;12.60;1.00;;;;;;7364303;19;20014;-62
2022/03/24 09:28:10;;;;;;;38.15;22.15;;;12.60;1.00;;;;;;7359748;19;20011;-62
2022/03/24 09:30:40;;;;;;;32.20;20.90;;;12.70;1.00;;;;;;7367313;19;20006;-63
2022/03/24 09:33:11;;;;;;;36.22;21.17;;;13.00;1.00;;;;;;7365578;19;20027;-63
2022/03/24 09:35:41;;;;;;;37.70;21.70;;;13.20;1.00;;;;;;7362012;19;20017;-62
2022/03/24 09:38:11;;;;;;;36.50;21.52;;;13.20;1.00;;;;;;7383406;19;20006;-62
2022/03/24 09:40:45;;;;;;;36.83;21.10;;;13.20;1.00;;;;;;7367901;19;20489;-62
2022/03/24 09:43:18;;;;;;;35.22;21.88;;;13.30;1.00;;;;;;7366163;19;20002;-63
2022/03/24 09:45:50;;;;;;;32.67;21.65;;;13.40;1.00;;;;;;7363747;19;20014;-62
2022/03/24 09:48:20;;;;;;;36.70;20.77;;;13.50;1.00;;;;;;7362340;19;20351;-61
2022/03/24 09:50:51;;;;;;;33.67;20.20;;;13.70;1.00;;;;;;7366211;19;20089;-63
2022/03/24 09:53:22;;;;;;;33.17;20.27;;;13.80;1.00;;;;;;7364109;19;20356;-62
2022/03/24 09:55:57;;;;;;;32.45;20.42;;;13.90;1.00;;;;;;7384776;19;20015;-63
2022/03/24 09:58:28;;;;;;;31.58;20.77;;;14.10;1.00;;;;;;7364511;19;20031;-63
2022/03/24 10:00:58;;;;;;;36.42;20.85;;;14.10;1.00;;;;;;7367545;19;20099;-64
2022/03/24 10:03:34;;;;;;;39.60;22.02;;;14.20;1.00;;;;;;7364727;19;20031;-64
2022/03/24 10:06:07;;;;;;;36.65;21.30;;;14.20;1.00;;;;;;7359178;19;20044;-62
2022/03/24 10:08:38;;;;;;;30.38;19.50;;;14.30;1.00;;;;;;7365415;19;20027;-63
2022/03/24 10:11:12;;;;;;;30.85;21.15;;;14.40;1.00;;;;;;7388125;19;20011;-63
2022/03/24 10:13:49;;;;;;;37.35;21.27;;;14.40;1.00;;;;;;7364540;19;20021;-64
2022/03/24 10:16:41;;;;;;;37.72;20.67;;;14.50;1.00;;;;;;7360312;19;20786;-62
2022/03/24 10:19:13;;;;;;;31.35;20.42;;;14.60;1.00;;;;;;7363948;19;20021;-62
2022/03/24 10:21:45;;;;;;;32.85;20.27;;;14.60;1.00;;;;;;7364283;19;20014;-62
2022/03/24 10:24:17;;;;;;;32.10;19.83;;;14.70;1.00;;;;;;7364874;19;20200;-62
2022/03/24 10:26:51;;;;;;;34.92;21.40;;;14.80;1.00;;;;;;7359593;19;20663;-62
2022/03/24 10:29:22;;;;;;;;;;;14.90;1.00;;;;;;7364791;19;20018;-62
2022/03/24 10:31:56;;;;;;;32.33;20.13;;;15.20;1.00;;;;;;7386097;19;19923;-63
2022/03/24 10:34:32;;;;;;;36.25;21.02;;;15.10;1.00;;;;;;7363916;19;20440;-64
2022/03/24 10:37:05;;;;;;;28.95;20.15;;;15.30;1.00;;;;;;7356962;19;20036;-61
2022/03/24 10:39:36;;;;;;;30.60;20.15;;;15.40;1.00;;;;;;7365366;19;20025;-62
2022/03/24 10:42:17;;;;;;;31.90;20.95;;;15.40;1.00;;;;;;7364331;19;20006;-62
2022/03/24 10:45:09;;;;;;;35.05;19.77;;;15.50;1.00;;;;;;7363480;19;20018;-63
2022/03/24 10:47:41;;;;;;;31.83;18.95;;;15.50;1.00;;;;;;7357207;19;20011;-63
2022/03/24 10:50:26;;;;;;;28.70;18.73;;;15.70;1.00;;;;;;7387407;19;20401;-63
2022/03/24 10:52:59;;;;;;;28.67;18.00;;;15.80;1.00;;;;;;7363456;19;20031;-61
2022/03/24 10:55:50;;;;;;;24.75;16.65;;;15.70;1.00;;;;;;7363027;19;20473;-63
2022/03/24 10:58:27;;;;;;;27.90;17.42;;;15.90;1.00;;;;;;7360513;19;20010;-63
2022/03/24 11:01:00;;;;;;;23.08;16.20;;;16.10;1.00;;;;;;7363413;19;20021;-62
2022/03/24 11:03:30;;;;;;;25.23;16.05;;;16.00;1.00;;;;;;7362755;19;20014;-63
2022/03/24 11:06:09;;;;;;;25.15;15.82;;;16.20;1.00;;;;;;7360053;19;20006;-63
2022/03/24 11:08:39;;;;;;;28.38;18.70;;;15.90;1.00;;;;;;7363212;19;20525;-62
2022/03/24 11:11:11;;;;;;;23.95;15.88;;;16.10;1.00;;;;;;7387307;19;20019;-62
2022/03/24 11:13:51;;;;;;;25.15;16.95;;;16.20;1.00;;;;;;7361909;19;20094;-61
2022/03/24 11:16:24;;;;;;;26.05;17.30;;;16.30;1.00;;;;;;7356280;19;20451;-63
2022/03/24 11:18:56;;;;;;;28.08;19.00;;;16.30;1.00;;;;;;7363111;19;20014;-62
2022/03/24 11:21:31;;;;;;;24.08;16.10;;;16.40;1.00;;;;;;7362116;19;20484;-63
2022/03/24 11:24:03;;;;;;;22.80;15.70;;;16.60;1.00;;;;;;7362624;19;20072;-63
2022/03/24 11:26:34;;;;;;;25.33;15.27;;;16.80;1.00;;;;;;7357332;19;20014;-62
2022/03/24 11:29:07;;;;;;;24.02;15.05;;;16.80;1.00;;;;;;7384514;19;20015;-60
2022/03/24 11:31:37;;;;;;;21.95;14.57;;;16.80;1.00;;;;;;7362958;19;20403;-60
2022/03/24 11:34:08;;;;;;;21.70;15.18;;;16.90;1.00;;;;;;7361303;19;20010;-61
2022/03/24 11:36:37;;;;;;;25.08;15.00;;;17.10;1.00;;;;;;7357782;19;20081;-60
2022/03/24 11:39:11;;;;;;;20.35;14.25;;;17.10;1.00;;;;;;7362364;19;20085;-61
2022/03/24 11:41:44;;;;;;;23.80;14.63;;;17.00;1.00;;;;;;7361020;19;20038;-60
2022/03/24 11:44:21;;;;;;;24.52;15.20;;;17.00;1.00;;;;;;7381733;19;20086;-60
2022/03/24 11:46:55;;;;;;;21.67;15.05;;;16.90;1.00;;;;;;7379733;19;20010;-59
2022/03/24 11:49:27;;;;;;;24.70;15.02;;;17.00;1.00;;;;;;7362296;19;20007;-58
2022/03/24 11:52:24;;;;;;;23.83;16.33;;;17.00;1.00;;;;;;7361000;19;20371;-60
2022/03/24 11:54:55;;;;;;;24.50;16.27;;;16.90;1.00;;;;;;7361418;19;20013;-60
2022/03/24 11:57:36;;;;;;;22.83;15.20;;;17.00;1.00;;;;;;7352445;19;20011;-59
2022/03/24 12:00:42;;;;;;;23.02;15.95;;;17.10;1.00;;;;;;7362827;19;20015;-60
2022/03/24 12:03:42;;;;;;;23.17;15.38;;;17.20;1.00;;;;;;7361427;19;20030;-59
2022/03/24 12:06:13;;;;;;;22.08;15.50;;;17.60;1.00;;;;;;7354195;19;20479;-59
2022/03/24 12:09:07;;;;;;;24.15;15.02;;;17.30;1.00;;;;;;7359447;19;20009;-59
2022/03/24 12:11:44;;;;;;;21.20;13.40;;;17.40;1.00;;;;;;7360708;19;20086;-60
2022/03/24 12:14:17;;;;;;;25.08;14.45;;;17.40;1.00;;;;;;7381838;19;20354;-59
2022/03/24 12:16:52;;;;;;;20.50;14.50;;;17.50;1.00;;;;;;7356448;19;20466;-59
2022/03/24 12:19:37;;;;;;;;;;;17.60;1.00;;;;;;7361517;19;20025;-59
2022/03/24 12:22:37;;;;;;;19.55;12.45;;;17.50;1.00;;;;;;7362195;19;19910;-60
2022/03/24 12:25:33;;;;;;;21.70;13.57;;;17.20;1.00;;;;;;7359920;19;20007;-60
2022/03/24 12:28:15;;;;;;;19.50;12.80;;;17.70;1.00;;;;;;7353006;19;20553;-60
2022/03/24 12:30:53;;;;;;;18.98;12.73;;;17.80;1.00;;;;;;7362377;19;20011;-61
2022/03/24 12:33:50;;;;;;;16.75;12.35;;;18.10;1.00;;;;;;7361454;19;20021;-59
2022/03/24 12:36:42;;;;;;;16.80;11.45;;;17.80;1.00;;;;;;7352829;19;20019;-60
2022/03/24 12:39:12;;;;;;;15.75;11.82;;;17.70;1.00;;;;;;7361555;19;20023;-60
2022/03/24 12:41:42;;;;;;;17.27;12.25;;;18.00;1.00;;;;;;7361806;19;20014;-59
2022/03/24 12:44:13;;;;;;;17.40;11.70;;;18.00;1.00;;;;;;7383155;19;20009;-59
2022/03/24 12:46:46;;;;;;;17.05;11.82;;;18.10;1.00;;;;;;7354927;19;20078;-61
2022/03/24 12:49:29;;;;;;;16.48;11.07;;;18.30;1.00;;;;;;7358852;19;20019;-59
2022/03/24 12:52:01;;;;;;;17.30;11.60;;;18.20;1.00;;;;;;7359093;19;20597;-60
2022/03/24 12:54:42;;;;;;;18.15;12.02;;;18.00;1.00;;;;;;7364883;19;20044;-61
2022/03/24 12:57:33;;;;;;;17.55;12.70;;;18.30;1.00;;;;;;7357971;19;20006;-60
2022/03/24 13:00:05;;;;;;;18.05;12.63;;;18.10;1.00;;;;;;7369477;19;20533;-62
2022/03/24 13:02:35;;;;;;;17.58;12.13;;;18.20;1.00;;;;;;7367106;19;20023;-61
2022/03/24 13:05:11;;;;;;;17.58;12.15;;;18.50;1.00;;;;;;7388215;19;20023;-61
2022/03/24 13:07:41;;;;;;;15.52;11.43;;;18.00;1.00;;;;;;7359980;19;20018;-61
2022/03/24 13:10:14;;;;;;;15.93;11.30;;;18.00;1.00;;;;;;7362907;19;20462;-60
2022/03/24 13:12:46;;;;;;;14.60;11.32;;;18.30;1.00;;;;;;7367413;19;20010;-61